This is the latest recevied weather packets stored in our database for station/object OK4PZ-5. If no packets are shown the sender has not sent any weather packets the latest 1 day(s).
| Time | Temp. | Humidity | Pressure | Rain* | Wind** | Luminosity | Snow |
|---|---|---|---|---|---|---|---|
| 1777971603 | 23.33° C | 40% | 1010 hPa | 0 mm | 0 m/s | - | - |
| 1777970703 | 22.22° C | 42% | 1010 hPa | 0 mm | 0.89 m/s, 56° | - | - |
| 1777969802 | 22.78° C | 41% | 1010 hPa | 0 mm | 0.45 m/s, 40° | - | - |
| 1777968902 | 21.11° C | 44% | 1010 hPa | 0 mm | 0 m/s | - | - |
| 1777968002 | 20.56° C | 43% | 1010 hPa | 0 mm | 0 m/s | - | - |
| 1777967101 | 19.44° C | 47% | 1011 hPa | 0 mm | 1.34 m/s, 140° | - | - |
| 1777966203 | 20° C | 46% | 1011 hPa | 0 mm | 0.45 m/s, 9° | - | - |
| 1777965301 | 18.33° C | 49% | 1011 hPa | 0 mm | 1.34 m/s, 145° | - | - |
| 1777964403 | 17.78° C | 50% | 1011 hPa | 0 mm | 0 m/s | - | - |
| 1777963506 | 17.22° C | 52% | 1011 hPa | 0 mm | 0.45 m/s, 150° | - | - |
| 1777962602 | 17.22° C | 54% | 1011 hPa | 0 mm | 0 m/s | - | - |
| 1777961702 | 16.11° C | 56% | 1011 hPa | 0 mm | 0.45 m/s, 81° | - | - |
| 1777960802 | 14.44° C | 64% | 1011 hPa | 0 mm | 0 m/s | - | - |
| 1777959901 | 13.89° C | 67% | 1011 hPa | 0 mm | 0.45 m/s, 18° | - | - |
| 1777959002 | 12.78° C | 72% | 1012 hPa | 0 mm | 0.45 m/s, 10° | - | - |
| 1777958102 | 11.11° C | 76% | 1012 hPa | 0 mm | 0 m/s | - | - |
| 1777957203 | 10.56° C | 78% | 1011 hPa | 0 mm | 0 m/s | - | - |
| 1777956302 | 10° C | 81% | 1011 hPa | 0 mm | 0 m/s | - | - |
| 1777955402 | 10° C | 82% | 1011 hPa | 0 mm | 0 m/s | - | - |
| 1777954502 | 9.44° C | 83% | 1011 hPa | 0 mm | 0 m/s | - | - |
| 1777953602 | 9.44° C | 82% | 1011 hPa | 0 mm | 0 m/s | - | - |
| 1777952702 | 10° C | 82% | 1012 hPa | 0 mm | 0 m/s | - | - |
* Rain latest hour (hover to see other rain measurements)
** Current wind speed in m/s (hover to see current wind gust speed)